MGH102 EDDK-LTAI
Flight info
| Callsign | MGH102 |
|---|---|
| Flight time | N/A |
| Altitude | 35000 |
| Route | KUMIK1R KUMIK L603 TESGA DCT ESATI DCT DETEV DCT DINKU M867 XERUM DCT BAVAX DCT RADIZ DCT ETOBI DCT IDASI DCT EDALA DCT SOLGU DCT MEDUX UM867 KOGAT DCT DISOR UL608 FSK DCT RIKSO UP14 LAVTA UN135 NESIL |
| Aircraft | B753/M-SDE2E3FGHIJ3J4J7RWXY/LB1 |
Departure
| Time | 2026-04-20 14:41 |
|---|---|
| Airport | Cologne Bonn Airport (EDDK) |
Arrival
| Time | N/A |
|---|---|
| Airport | Antalya International Airport (LTAI) |
| Time | Latitude | Longitude | Altitude | Speed | Heading |
|---|---|---|---|---|---|
| 2026-04-20 13:54 | 50.88113 | 7.12077 | 231 ft | 0 kts | 216° |
| 2026-04-20 14:25 | 50.88128 | 7.12084 | 232 ft | 2 kts | 186° |
| 2026-04-20 14:25 | 50.88142 | 7.12086 | 232 ft | 1 kts | 183° |
| 2026-04-20 14:25 | 50.88152 | 7.12087 | 232 ft | 2 kts | 181° |
| 2026-04-20 14:26 | 50.88167 | 7.12084 | 232 ft | 2 kts | 172° |
| 2026-04-20 14:26 | 50.88182 | 7.12081 | 232 ft | 2 kts | 154° |
| 2026-04-20 14:26 | 50.88192 | 7.12069 | 231 ft | 0 kts | 129° |
| 2026-04-20 14:26 | 50.88195 | 7.12061 | 231 ft | 1 kts | 125° |
| 2026-04-20 14:27 | 50.88196 | 7.12060 | 231 ft | 0 kts | 125° |
| 2026-04-20 14:32 | 50.88192 | 7.12069 | 231 ft | 3 kts | 125° |
| 2026-04-20 14:32 | 50.88166 | 7.12125 | 232 ft | 8 kts | 126° |
| 2026-04-20 14:32 | 50.88126 | 7.12211 | 235 ft | 10 kts | 124° |
| 2026-04-20 14:32 | 50.88094 | 7.12323 | 239 ft | 11 kts | 118° |
| 2026-04-20 14:33 | 50.88062 | 7.12401 | 242 ft | 3 kts | 127° |
| 2026-04-20 14:33 | 50.88032 | 7.12451 | 244 ft | 10 kts | 135° |
| 2026-04-20 14:33 | 50.87959 | 7.12561 | 247 ft | 15 kts | 145° |
| 2026-04-20 14:33 | 50.87862 | 7.12611 | 248 ft | 13 kts | 166° |
| 2026-04-20 14:34 | 50.87778 | 7.12686 | 250 ft | 16 kts | 142° |
| 2026-04-20 14:34 | 50.87677 | 7.12829 | 250 ft | 22 kts | 137° |
| 2026-04-20 14:34 | 50.87553 | 7.13010 | 247 ft | 24 kts | 137° |
| 2026-04-20 14:34 | 50.87429 | 7.13190 | 246 ft | 24 kts | 137° |
| 2026-04-20 14:35 | 50.87291 | 7.13392 | 246 ft | 28 kts | 137° |
| 2026-04-20 14:35 | 50.87149 | 7.13590 | 248 ft | 25 kts | 139° |
| 2026-04-20 14:35 | 50.87026 | 7.13773 | 252 ft | 22 kts | 136° |
| 2026-04-20 14:35 | 50.86908 | 7.13947 | 255 ft | 24 kts | 137° |
| 2026-04-20 14:36 | 50.86785 | 7.14110 | 258 ft | 21 kts | 144° |
| 2026-04-20 14:36 | 50.86667 | 7.14234 | 261 ft | 18 kts | 139° |
| 2026-04-20 14:36 | 50.86555 | 7.14395 | 266 ft | 25 kts | 137° |
| 2026-04-20 14:36 | 50.86418 | 7.14593 | 273 ft | 25 kts | 137° |
| 2026-04-20 14:37 | 50.86290 | 7.14778 | 279 ft | 25 kts | 137° |
| 2026-04-20 14:37 | 50.86154 | 7.14977 | 282 ft | 27 kts | 137° |
| 2026-04-20 14:37 | 50.86013 | 7.15183 | 283 ft | 26 kts | 138° |
| 2026-04-20 14:37 | 50.85882 | 7.15370 | 284 ft | 24 kts | 137° |
| 2026-04-20 14:38 | 50.85750 | 7.15561 | 286 ft | 27 kts | 137° |
| 2026-04-20 14:38 | 50.85608 | 7.15765 | 291 ft | 26 kts | 137° |
| 2026-04-20 14:38 | 50.85478 | 7.15951 | 294 ft | 23 kts | 138° |
| 2026-04-20 14:38 | 50.85373 | 7.16117 | 300 ft | 18 kts | 121° |
| 2026-04-20 14:39 | 50.85344 | 7.16293 | 304 ft | 17 kts | 86° |
| 2026-04-20 14:39 | 50.85407 | 7.16472 | 308 ft | 19 kts | 34° |
| 2026-04-20 14:39 | 50.85522 | 7.16527 | 309 ft | 13 kts | 9° |
| 2026-04-20 14:39 | 50.85579 | 7.16484 | 308 ft | 12 kts | 318° |
| 2026-04-20 14:40 | 50.85771 | 7.16200 | 302 ft | 70 kts | 319° |
| 2026-04-20 14:40 | 50.86297 | 7.15439 | 287 ft | 133 kts | 317° |
| 2026-04-20 14:40 | 50.87129 | 7.14244 | 337 ft | 182 kts | 317° |
| 2026-04-20 14:40 | 50.88088 | 7.12863 | 899 ft | 197 kts | 317° |
| 2026-04-20 14:41 | 50.89242 | 7.11633 | 1666 ft | 205 kts | 343° |
| 2026-04-20 14:41 | 50.90658 | 7.11637 | 2338 ft | 211 kts | 20° |
| 2026-04-20 14:41 | 50.91933 | 7.12741 | 3088 ft | 212 kts | 31° |
| 2026-04-20 14:41 | 50.93120 | 7.14128 | 3666 ft | 225 kts | 46° |
| 2026-04-20 14:42 | 50.94035 | 7.16304 | 4092 ft | 246 kts | 58° |
| 2026-04-20 14:42 | 50.94859 | 7.18645 | 4860 ft | 250 kts | 58° |
| 2026-04-20 14:42 | 50.95714 | 7.21148 | 5417 ft | 265 kts | 59° |
| 2026-04-20 14:42 | 50.96537 | 7.23739 | 6300 ft | 267 kts | 67° |
| 2026-04-20 14:43 | 50.96830 | 7.26666 | 7044 ft | 278 kts | 94° |
| 2026-04-20 14:43 | 50.96300 | 7.29586 | 7834 ft | 283 kts | 109° |
| 2026-04-20 14:43 | 50.95643 | 7.32546 | 8639 ft | 285 kts | 105° |
| 2026-04-20 14:43 | 50.95085 | 7.35557 | 9415 ft | 287 kts | 104° |
| 2026-04-20 14:44 | 50.94565 | 7.38571 | 10133 ft | 292 kts | 103° |
| 2026-04-20 14:44 | 50.94061 | 7.41631 | 10678 ft | 302 kts | 103° |
| 2026-04-20 14:44 | 50.93527 | 7.44965 | 10978 ft | 322 kts | 102° |
| 2026-04-20 14:44 | 50.92970 | 7.48497 | 11300 ft | 341 kts | 102° |
| 2026-04-20 14:45 | 50.92378 | 7.52270 | 11590 ft | 360 kts | 102° |
| 2026-04-20 14:45 | 50.91766 | 7.56172 | 12002 ft | 374 kts | 102° |
| 2026-04-20 14:45 | 50.91134 | 7.60206 | 12794 ft | 376 kts | 102° |
| 2026-04-20 14:45 | 50.90501 | 7.64240 | 13581 ft | 378 kts | 102° |
| 2026-04-20 14:46 | 50.89870 | 7.68263 | 14298 ft | 381 kts | 103° |
| 2026-04-20 14:46 | 50.89223 | 7.72370 | 14975 ft | 386 kts | 103° |
| 2026-04-20 14:46 | 50.88569 | 7.76519 | 15664 ft | 389 kts | 103° |
| 2026-04-20 14:46 | 50.87917 | 7.80635 | 16288 ft | 393 kts | 103° |
| 2026-04-20 14:47 | 50.87242 | 7.84891 | 16933 ft | 397 kts | 103° |
| 2026-04-20 14:47 | 50.86568 | 7.89132 | 17496 ft | 402 kts | 103° |
| 2026-04-20 14:47 | 50.85887 | 7.93403 | 18059 ft | 406 kts | 103° |
| 2026-04-20 14:48 | 50.84492 | 8.02126 | 19182 ft | 413 kts | 104° |
| 2026-04-20 14:48 | 50.83590 | 8.06435 | 19879 ft | 413 kts | 114° |
| 2026-04-20 14:48 | 50.82223 | 8.10413 | 20497 ft | 414 kts | 122° |
| 2026-04-20 14:48 | 50.80647 | 8.14266 | 21105 ft | 416 kts | 122° |
| 2026-04-20 14:49 | 50.79082 | 8.18062 | 21718 ft | 416 kts | 122° |
| 2026-04-20 14:49 | 50.77509 | 8.21834 | 22326 ft | 417 kts | 122° |
| 2026-04-20 14:49 | 50.75890 | 8.25690 | 22935 ft | 417 kts | 122° |
| 2026-04-20 14:49 | 50.74300 | 8.29459 | 23503 ft | 417 kts | 122° |
| 2026-04-20 14:50 | 50.72692 | 8.33260 | 24010 ft | 419 kts | 122° |
| 2026-04-20 14:50 | 50.71018 | 8.37025 | 24499 ft | 421 kts | 127° |
| 2026-04-20 14:50 | 50.68974 | 8.40397 | 24676 ft | 431 kts | 137° |
| 2026-04-20 14:50 | 50.66547 | 8.43155 | 25104 ft | 435 kts | 147° |
| 2026-04-20 14:51 | 50.63958 | 8.45738 | 25340 ft | 440 kts | 141° |
| 2026-04-20 14:51 | 50.61645 | 8.48916 | 25584 ft | 444 kts | 134° |
| 2026-04-20 14:51 | 50.59389 | 8.52237 | 25941 ft | 447 kts | 136° |
| 2026-04-20 14:51 | 50.57034 | 8.55537 | 26106 ft | 455 kts | 137° |
| 2026-04-20 14:52 | 50.54657 | 8.58788 | 26445 ft | 458 kts | 137° |
| 2026-04-20 14:52 | 50.52203 | 8.62094 | 26489 ft | 468 kts | 138° |
| 2026-04-20 14:52 | 50.49703 | 8.65430 | 26502 ft | 480 kts | 140° |
| 2026-04-20 14:52 | 50.47153 | 8.68792 | 27104 ft | 474 kts | 140° |
| 2026-04-20 14:53 | 50.44614 | 8.72138 | 27227 ft | 483 kts | 140° |
| 2026-04-20 14:53 | 50.42025 | 8.75536 | 27265 ft | 493 kts | 141° |
| 2026-04-20 14:53 | 50.39362 | 8.79019 | 27634 ft | 494 kts | 141° |
| 2026-04-20 14:53 | 50.36716 | 8.82474 | 27871 ft | 499 kts | 142° |
| 2026-04-20 14:54 | 50.34067 | 8.85927 | 28086 ft | 504 kts | 142° |
| 2026-04-20 14:54 | 50.31362 | 8.89443 | 28373 ft | 506 kts | 142° |
| 2026-04-20 14:54 | 50.28625 | 8.92995 | 28632 ft | 510 kts | 142° |
| 2026-04-20 14:54 | 50.25888 | 8.96538 | 28984 ft | 512 kts | 142° |
| 2026-04-20 14:55 | 50.23168 | 9.00060 | 29214 ft | 516 kts | 143° |
| 2026-04-20 14:55 | 50.20373 | 9.03672 | 29396 ft | 520 kts | 143° |
| 2026-04-20 14:55 | 50.17597 | 9.07251 | 29698 ft | 522 kts | 143° |
| 2026-04-20 14:56 | 50.11961 | 9.14504 | 30062 ft | 531 kts | 143° |
| 2026-04-20 14:56 | 50.09063 | 9.18223 | 30328 ft | 533 kts | 143° |
| 2026-04-20 14:56 | 50.06212 | 9.21879 | 30789 ft | 532 kts | 143° |
| 2026-04-20 14:57 | 50.00495 | 9.29190 | 31285 ft | 535 kts | 143° |
| 2026-04-20 14:57 | 49.97644 | 9.32827 | 31745 ft | 532 kts | 143° |
| 2026-04-20 14:57 | 49.94779 | 9.36475 | 32056 ft | 532 kts | 143° |
| 2026-04-20 14:57 | 49.91915 | 9.40117 | 32426 ft | 530 kts | 143° |
| 2026-04-20 14:58 | 49.89057 | 9.43745 | 32808 ft | 528 kts | 143° |
| 2026-04-20 14:58 | 49.86250 | 9.47304 | 32997 ft | 530 kts | 143° |
| 2026-04-20 14:58 | 49.83384 | 9.50933 | 33396 ft | 527 kts | 143° |
| 2026-04-20 14:58 | 49.80557 | 9.54505 | 33593 ft | 527 kts | 143° |
| 2026-04-20 14:59 | 49.77698 | 9.58111 | 33824 ft | 527 kts | 143° |
| 2026-04-20 14:59 | 49.74874 | 9.61669 | 34072 ft | 526 kts | 143° |
| 2026-04-20 14:59 | 49.72051 | 9.65221 | 34361 ft | 525 kts | 144° |
| 2026-04-20 14:59 | 49.69230 | 9.68761 | 34569 ft | 525 kts | 144° |
| 2026-04-20 15:00 | 49.66375 | 9.72341 | 34814 ft | 523 kts | 143° |
| 2026-04-20 15:00 | 49.63583 | 9.75839 | 35039 ft | 522 kts | 144° |
| 2026-04-20 15:00 | 49.60775 | 9.79348 | 35092 ft | 520 kts | 144° |
| 2026-04-20 15:01 | 49.55147 | 9.86365 | 35087 ft | 520 kts | 144° |
| 2026-04-20 15:01 | 49.49519 | 9.93367 | 35097 ft | 521 kts | 143° |
| 2026-04-20 15:02 | 49.43880 | 10.00359 | 35096 ft | 523 kts | 144° |
| 2026-04-20 15:02 | 49.38204 | 10.07369 | 35101 ft | 524 kts | 144° |
| 2026-04-20 15:03 | 49.32502 | 10.14395 | 35080 ft | 526 kts | 144° |
| 2026-04-20 15:03 | 49.26819 | 10.21374 | 35071 ft | 526 kts | 144° |
| 2026-04-20 15:04 | 49.21073 | 10.28410 | 35098 ft | 526 kts | 144° |
| 2026-04-20 15:04 | 49.15356 | 10.35390 | 35073 ft | 528 kts | 144° |
| 2026-04-20 15:05 | 49.09627 | 10.42362 | 35080 ft | 529 kts | 144° |
| 2026-04-20 15:05 | 49.03817 | 10.49413 | 35065 ft | 531 kts | 144° |
| 2026-04-20 15:06 | 48.98047 | 10.56391 | 35070 ft | 533 kts | 144° |
| 2026-04-20 15:06 | 48.92247 | 10.63388 | 35068 ft | 531 kts | 144° |
| 2026-04-20 15:07 | 48.86474 | 10.70328 | 35062 ft | 530 kts | 145° |
| 2026-04-20 15:07 | 48.80790 | 10.77421 | 35052 ft | 533 kts | 137° |
| 2026-04-20 15:08 | 48.75793 | 10.85703 | 35037 ft | 534 kts | 134° |
| 2026-04-20 15:08 | 48.70807 | 10.94052 | 35039 ft | 537 kts | 134° |
| 2026-04-20 15:09 | 48.65834 | 11.02363 | 35050 ft | 534 kts | 134° |
| 2026-04-20 15:09 | 48.60829 | 11.10696 | 35049 ft | 536 kts | 134° |
| 2026-04-20 15:10 | 48.55816 | 11.19021 | 35053 ft | 535 kts | 134° |
| 2026-04-20 15:10 | 48.50851 | 11.27237 | 35053 ft | 533 kts | 134° |
| 2026-04-20 15:11 | 48.45834 | 11.35516 | 35059 ft | 535 kts | 134° |
| 2026-04-20 15:11 | 48.40824 | 11.43753 | 35045 ft | 534 kts | 134° |
| 2026-04-20 15:12 | 48.35825 | 11.51946 | 35036 ft | 535 kts | 134° |
| 2026-04-20 15:12 | 48.30784 | 11.60188 | 35033 ft | 535 kts | 134° |
| 2026-04-20 15:13 | 48.25684 | 11.68303 | 35040 ft | 533 kts | 140° |
| 2026-04-20 15:13 | 48.20257 | 11.75806 | 35042 ft | 533 kts | 140° |
| 2026-04-20 15:14 | 48.14805 | 11.83305 | 35022 ft | 535 kts | 140° |
| 2026-04-20 15:14 | 48.09328 | 11.90809 | 35030 ft | 536 kts | 140° |
| 2026-04-20 15:15 | 48.03817 | 11.98334 | 35035 ft | 535 kts | 140° |
| 2026-04-20 15:15 | 47.98325 | 12.05806 | 35030 ft | 536 kts | 140° |
| 2026-04-20 15:16 | 47.92831 | 12.13261 | 35022 ft | 537 kts | 140° |
| 2026-04-20 15:16 | 47.87308 | 12.20731 | 35003 ft | 534 kts | 140° |
| 2026-04-20 15:17 | 47.81782 | 12.28182 | 34998 ft | 537 kts | 140° |
| 2026-04-20 15:17 | 47.76296 | 12.35559 | 35000 ft | 532 kts | 140° |
| 2026-04-20 15:18 | 47.70826 | 12.42892 | 34989 ft | 531 kts | 140° |
| 2026-04-20 15:18 | 47.65323 | 12.50243 | 35011 ft | 534 kts | 140° |
| 2026-04-20 15:19 | 47.59980 | 12.57900 | 35024 ft | 533 kts | 134° |
| 2026-04-20 15:19 | 47.54922 | 12.65867 | 35028 ft | 534 kts | 136° |
| 2026-04-20 15:20 | 47.49833 | 12.73814 | 35000 ft | 532 kts | 136° |
| 2026-04-20 15:20 | 47.44722 | 12.81759 | 35003 ft | 534 kts | 136° |
| 2026-04-20 15:21 | 47.39618 | 12.89664 | 35006 ft | 534 kts | 136° |
| 2026-04-20 15:21 | 47.34494 | 12.97579 | 35011 ft | 534 kts | 136° |
| 2026-04-20 15:22 | 47.29381 | 13.05449 | 35014 ft | 532 kts | 136° |
| 2026-04-20 15:22 | 47.24287 | 13.13271 | 34987 ft | 532 kts | 136° |
| 2026-04-20 15:23 | 47.19148 | 13.21133 | 34968 ft | 532 kts | 136° |
| 2026-04-20 15:23 | 47.14029 | 13.28945 | 34950 ft | 531 kts | 136° |
| 2026-04-20 15:24 | 47.08899 | 13.36747 | 34947 ft | 534 kts | 136° |
| 2026-04-20 15:24 | 47.03752 | 13.44557 | 34952 ft | 531 kts | 136° |
| 2026-04-20 15:25 | 46.98637 | 13.52292 | 34943 ft | 531 kts | 136° |
| 2026-04-20 15:25 | 46.93504 | 13.60030 | 34948 ft | 532 kts | 136° |
| 2026-04-20 15:26 | 46.88329 | 13.67815 | 34950 ft | 532 kts | 137° |
| 2026-04-20 15:26 | 46.83179 | 13.75533 | 34963 ft | 532 kts | 137° |
| 2026-04-20 15:27 | 46.78016 | 13.83250 | 34977 ft | 534 kts | 137° |
| 2026-04-20 15:27 | 46.72815 | 13.91002 | 34967 ft | 534 kts | 137° |
| 2026-04-20 15:28 | 46.67635 | 13.98698 | 34968 ft | 533 kts | 137° |
| 2026-04-20 15:28 | 46.62462 | 14.06364 | 34963 ft | 534 kts | 137° |
| 2026-04-20 15:29 | 46.57250 | 14.14065 | 34954 ft | 533 kts | 137° |
| 2026-04-20 15:29 | 46.52050 | 14.21724 | 34948 ft | 535 kts | 137° |
| 2026-04-20 15:30 | 46.46835 | 14.29383 | 34949 ft | 535 kts | 137° |
| 2026-04-20 15:30 | 46.41587 | 14.37070 | 34950 ft | 535 kts | 137° |
| 2026-04-20 15:31 | 46.36366 | 14.44695 | 34946 ft | 534 kts | 137° |
| 2026-04-20 15:31 | 46.31146 | 14.52294 | 34949 ft | 535 kts | 137° |
| 2026-04-20 15:32 | 46.25899 | 14.59914 | 34962 ft | 534 kts | 137° |
| 2026-04-20 15:32 | 46.20655 | 14.67503 | 34961 ft | 536 kts | 138° |
| 2026-04-20 15:33 | 46.15402 | 14.75090 | 34950 ft | 533 kts | 139° |
| 2026-04-20 15:33 | 46.10162 | 14.82630 | 34960 ft | 536 kts | 138° |
| 2026-04-20 15:34 | 46.04922 | 14.90152 | 34966 ft | 536 kts | 138° |
| 2026-04-20 15:34 | 45.99654 | 14.97694 | 34957 ft | 534 kts | 138° |
| 2026-04-20 15:35 | 45.94367 | 15.05239 | 34960 ft | 536 kts | 138° |
| 2026-04-20 15:35 | 45.89102 | 15.12732 | 34958 ft | 535 kts | 138° |
| 2026-04-20 15:36 | 45.83795 | 15.20264 | 34967 ft | 535 kts | 138° |
| 2026-04-20 15:36 | 45.78501 | 15.27754 | 34983 ft | 537 kts | 138° |
| 2026-04-20 15:37 | 45.73212 | 15.35220 | 34978 ft | 536 kts | 138° |
| 2026-04-20 15:37 | 45.67905 | 15.42688 | 34975 ft | 535 kts | 138° |
| 2026-04-20 15:38 | 45.62597 | 15.50137 | 34979 ft | 537 kts | 138° |
| 2026-04-20 15:38 | 45.57297 | 15.57554 | 34972 ft | 535 kts | 138° |
| 2026-04-20 15:39 | 45.51990 | 15.64960 | 34974 ft | 535 kts | 138° |
| 2026-04-20 15:39 | 45.46649 | 15.72392 | 34967 ft | 535 kts | 139° |
| 2026-04-20 15:40 | 45.41332 | 15.79769 | 34968 ft | 535 kts | 139° |
| 2026-04-20 15:40 | 45.36050 | 15.87080 | 34958 ft | 531 kts | 139° |
| 2026-04-20 15:41 | 45.30726 | 15.94426 | 34960 ft | 534 kts | 139° |
| 2026-04-20 15:41 | 45.25388 | 16.01772 | 34959 ft | 533 kts | 139° |
| 2026-04-20 15:42 | 45.20068 | 16.09074 | 34958 ft | 535 kts | 139° |
| 2026-04-20 15:42 | 45.14724 | 16.16390 | 34961 ft | 533 kts | 139° |
| 2026-04-20 15:43 | 45.09414 | 16.23637 | 34960 ft | 532 kts | 139° |
| 2026-04-20 15:43 | 45.04082 | 16.30895 | 34964 ft | 532 kts | 139° |
| 2026-04-20 15:44 | 44.98775 | 16.38100 | 34965 ft | 531 kts | 139° |
| 2026-04-20 15:44 | 44.93462 | 16.45291 | 34969 ft | 532 kts | 139° |
| 2026-04-20 15:45 | 44.88086 | 16.52551 | 34961 ft | 532 kts | 139° |
| 2026-04-20 15:45 | 44.82774 | 16.59704 | 34966 ft | 532 kts | 139° |
| 2026-04-20 15:46 | 44.77400 | 16.66920 | 34958 ft | 532 kts | 139° |
| 2026-04-20 15:46 | 44.72055 | 16.74079 | 34962 ft | 532 kts | 140° |
| 2026-04-20 15:47 | 44.66692 | 16.81243 | 34961 ft | 531 kts | 139° |
| 2026-04-20 15:47 | 44.61345 | 16.88365 | 34971 ft | 532 kts | 139° |
| 2026-04-20 15:48 | 44.56211 | 16.95797 | 34975 ft | 534 kts | 133° |
| 2026-04-20 15:48 | 44.51323 | 17.03652 | 34967 ft | 535 kts | 133° |
| 2026-04-20 15:49 | 44.46397 | 17.11488 | 34953 ft | 533 kts | 133° |
| 2026-04-20 15:49 | 44.41487 | 17.19265 | 34961 ft | 533 kts | 133° |
| 2026-04-20 15:50 | 44.36608 | 17.26965 | 34961 ft | 533 kts | 133° |
| 2026-04-20 15:50 | 44.31662 | 17.34750 | 34957 ft | 532 kts | 133° |
| 2026-04-20 15:51 | 44.26751 | 17.42456 | 34966 ft | 533 kts | 133° |
| 2026-04-20 15:51 | 44.21793 | 17.50215 | 34967 ft | 530 kts | 133° |
| 2026-04-20 15:52 | 44.16896 | 17.57850 | 34973 ft | 530 kts | 133° |
| 2026-04-20 15:52 | 44.11951 | 17.65542 | 34975 ft | 531 kts | 133° |
| 2026-04-20 15:53 | 44.05116 | 17.77682 | 34965 ft | 532 kts | 129° |
| 2026-04-20 15:53 | 44.00548 | 17.85863 | 34962 ft | 531 kts | 129° |
| 2026-04-20 15:54 | 43.95947 | 17.94068 | 34966 ft | 531 kts | 129° |
| 2026-04-20 15:54 | 43.91340 | 18.02258 | 34970 ft | 531 kts | 129° |
| 2026-04-20 15:55 | 43.86760 | 18.10375 | 34971 ft | 529 kts | 129° |